sensor_id;sensor_type;location;lat;lon;timestamp;pressure;altitude;pressure_sealevel;temperature;humidity
32033;BME280;31720;52.638;9.216;2023-02-02T00:00:13;101203.50;;;4.86;100.00
32033;BME280;31720;52.638;9.216;2023-02-02T00:03:14;101210.44;;;4.87;100.00
32033;BME280;31720;52.638;9.216;2023-02-02T00:06:16;101219.97;;;4.88;100.00
32033;BME280;31720;52.638;9.216;2023-02-02T00:09:19;101218.34;;;4.82;100.00
32033;BME280;31720;52.638;9.216;2023-02-02T00:12:21;101201.94;;;4.78;100.00
32033;BME280;31720;52.638;9.216;2023-02-02T00:15:22;101205.44;;;4.76;100.00
32033;BME280;31720;52.638;9.216;2023-02-02T00:18:23;101209.75;;;4.78;100.00
32033;BME280;31720;52.638;9.216;2023-02-02T00:21:25;101220.97;;;4.82;100.00
32033;BME280;31720;52.638;9.216;2023-02-02T00:24:28;101206.28;;;4.78;100.00
32033;BME280;31720;52.638;9.216;2023-02-02T00:27:29;101224.56;;;4.75;100.00
32033;BME280;31720;52.638;9.216;2023-02-02T00:30:30;101213.34;;;4.73;100.00
32033;BME280;31720;52.638;9.216;2023-02-02T00:33:32;101210.00;;;4.66;100.00
32033;BME280;31720;52.638;9.216;2023-02-02T00:36:33;101204.75;;;4.68;100.00
32033;BME280;31720;52.638;9.216;2023-02-02T00:39:36;101214.31;;;4.69;100.00
32033;BME280;31720;52.638;9.216;2023-02-02T00:42:37;101218.50;;;4.74;100.00
32033;BME280;31720;52.638;9.216;2023-02-02T00:45:39;101211.66;;;4.70;100.00
32033;BME280;31720;52.638;9.216;2023-02-02T00:48:40;101214.41;;;4.64;100.00
32033;BME280;31720;52.638;9.216;2023-02-02T00:51:41;101214.41;;;4.63;100.00
32033;BME280;31720;52.638;9.216;2023-02-02T00:54:44;101207.47;;;4.63;100.00
32033;BME280;31720;52.638;9.216;2023-02-02T00:57:46;101209.16;;;4.66;100.00
32033;BME280;31720;52.638;9.216;2023-02-02T01:00:47;101218.59;;;4.70;100.00
32033;BME280;31720;52.638;9.216;2023-02-02T01:03:49;101213.31;;;4.74;100.00
32033;BME280;31720;52.638;9.216;2023-02-02T01:06:51;101221.06;;;4.77;100.00
32033;BME280;31720;52.638;9.216;2023-02-02T01:09:53;101210.66;;;4.76;100.00
32033;BME280;31720;52.638;9.216;2023-02-02T01:12:55;101224.53;;;4.76;100.00
32033;BME280;31720;52.638;9.216;2023-02-02T01:15:57;101216.75;;;4.75;100.00
32033;BME280;31720;52.638;9.216;2023-02-02T01:18:58;101227.13;;;4.78;100.00
32033;BME280;31720;52.638;9.216;2023-02-02T01:21:59;101233.34;;;4.71;100.00
32033;BME280;31720;52.638;9.216;2023-02-02T01:25:03;101229.09;;;4.67;100.00
32033;BME280;31720;52.638;9.216;2023-02-02T01:28:04;101232.72;;;4.60;100.00
32033;BME280;31720;52.638;9.216;2023-02-02T01:31:07;101232.81;;;4.53;100.00
32033;BME280;31720;52.638;9.216;2023-02-02T01:34:09;101256.34;;;4.50;100.00
32033;BME280;31720;52.638;9.216;2023-02-02T01:37:10;101253.84;;;4.44;100.00
32033;BME280;31720;52.638;9.216;2023-02-02T01:40:13;101252.03;;;4.48;100.00
32033;BME280;31720;52.638;9.216;2023-02-02T01:43:21;101265.09;;;4.46;100.00
32033;BME280;31720;52.638;9.216;2023-02-02T01:46:25;101263.38;;;4.44;100.00
32033;BME280;31720;52.638;9.216;2023-02-02T01:49:27;101255.56;;;4.45;100.00
32033;BME280;31720;52.638;9.216;2023-02-02T01:52:29;101258.22;;;4.42;100.00
32033;BME280;31720;52.638;9.216;2023-02-02T01:55:34;101263.38;;;4.44;100.00
32033;BME280;31720;52.638;9.216;2023-02-02T01:58:39;101269.63;;;4.37;100.00
32033;BME280;31720;52.638;9.216;2023-02-02T02:01:41;101267.06;;;4.33;100.00
32033;BME280;31720;52.638;9.216;2023-02-02T02:04:44;101284.50;;;4.28;100.00
32033;BME280;31720;52.638;9.216;2023-02-02T02:07:46;101284.47;;;4.30;100.00
32033;BME280;31720;52.638;9.216;2023-02-02T02:10:50;101294.06;;;4.28;100.00
32033;BME280;31720;52.638;9.216;2023-02-02T02:13:54;101298.50;;;4.23;100.00
32033;BME280;31720;52.638;9.216;2023-02-02T02:17:29;101300.19;;;4.24;100.00
32033;BME280;31720;52.638;9.216;2023-02-02T02:20:55;101312.34;;;4.23;100.00
32033;BME280;31720;52.638;9.216;2023-02-02T02:24:51;101307.16;;;4.23;100.00
32033;BME280;31720;52.638;9.216;2023-02-02T02:28:49;101309.97;;;4.11;100.00
32033;BME280;31720;52.638;9.216;2023-02-02T02:32:05;101316.06;;;4.08;100.00
32033;BME280;31720;52.638;9.216;2023-02-02T02:35:17;101307.31;;;4.14;100.00
32033;BME280;31720;52.638;9.216;2023-02-02T02:38:24;101314.25;;;4.14;100.00
32033;BME280;31720;52.638;9.216;2023-02-02T02:41:33;101322.16;;;4.09;100.00
32033;BME280;31720;52.638;9.216;2023-02-02T02:44:35;101321.19;;;4.13;100.00
32033;BME280;31720;52.638;9.216;2023-02-02T02:47:38;101325.66;;;4.06;100.00
32033;BME280;31720;52.638;9.216;2023-02-02T02:50:41;101323.00;;;4.10;100.00
32033;BME280;31720;52.638;9.216;2023-02-02T02:53:42;101326.47;;;4.08;100.00
32033;BME280;31720;52.638;9.216;2023-02-02T02:56:55;101324.81;;;4.04;100.00
32033;BME280;31720;52.638;9.216;2023-02-02T03:00:02;101322.16;;;4.07;100.00
32033;BME280;31720;52.638;9.216;2023-02-02T03:03:13;101317.91;;;4.02;100.00
32033;BME280;31720;52.638;9.216;2023-02-02T03:06:19;101333.53;;;4.02;100.00
32033;BME280;31720;52.638;9.216;2023-02-02T03:09:24;101327.47;;;4.01;100.00
32033;BME280;31720;52.638;9.216;2023-02-02T03:12:26;101336.94;;;4.04;100.00
32033;BME280;31720;52.638;9.216;2023-02-02T03:15:27;101339.59;;;4.02;100.00
32033;BME280;31720;52.638;9.216;2023-02-02T03:18:31;101333.53;;;4.02;100.00
32033;BME280;31720;52.638;9.216;2023-02-02T03:21:33;101337.84;;;4.04;100.00
32033;BME280;31720;52.638;9.216;2023-02-02T03:24:34;101337.88;;;4.01;100.00
32033;BME280;31720;52.638;9.216;2023-02-02T03:27:36;101336.94;;;4.05;100.00
32033;BME280;31720;52.638;9.216;2023-02-02T03:30:39;101357.78;;;4.02;100.00
32033;BME280;31720;52.638;9.216;2023-02-02T03:33:43;101354.41;;;3.97;100.00
32033;BME280;31720;52.638;9.216;2023-02-02T03:36:44;101366.66;;;3.91;100.00
32033;BME280;31720;52.638;9.216;2023-02-02T03:39:46;101365.00;;;3.87;100.00
32033;BME280;31720;52.638;9.216;2023-02-02T03:42:47;101361.50;;;3.88;100.00
32033;BME280;31720;52.638;9.216;2023-02-02T03:45:54;101367.34;;;4.02;100.00
32033;BME280;31720;52.638;9.216;2023-02-02T03:48:57;101371.59;;;4.06;100.00
32033;BME280;31720;52.638;9.216;2023-02-02T03:51:58;101381.97;;;4.07;100.00
32033;BME280;31720;52.638;9.216;2023-02-02T03:55:00;101376.72;;;4.11;100.00
32033;BME280;31720;52.638;9.216;2023-02-02T03:58:02;101379.59;;;3.95;100.00
32033;BME280;31720;52.638;9.216;2023-02-02T04:01:04;101383.13;;;3.90;100.00
32033;BME280;31720;52.638;9.216;2023-02-02T04:04:07;101385.75;;;3.88;100.00
32033;BME280;31720;52.638;9.216;2023-02-02T04:07:08;101385.75;;;3.88;100.00
32033;BME280;31720;52.638;9.216;2023-02-02T04:10:10;101393.53;;;3.90;100.00
32033;BME280;31720;52.638;9.216;2023-02-02T04:13:11;101397.03;;;3.87;100.00
32033;BME280;31720;52.638;9.216;2023-02-02T04:16:13;101402.28;;;3.84;100.00
32033;BME280;31720;52.638;9.216;2023-02-02T04:19:15;101408.44;;;3.77;100.00
32033;BME280;31720;52.638;9.216;2023-02-02T04:22:17;101411.06;;;3.75;100.00
32033;BME280;31720;52.638;9.216;2023-02-02T04:25:18;101404.97;;;3.76;100.00
32033;BME280;31720;52.638;9.216;2023-02-02T04:28:19;101407.59;;;3.78;100.00
32033;BME280;31720;52.638;9.216;2023-02-02T04:31:22;101412.81;;;3.75;100.00
32033;BME280;31720;52.638;9.216;2023-02-02T04:34:25;101411.03;;;3.77;100.00
32033;BME280;31720;52.638;9.216;2023-02-02T04:37:29;101409.41;;;3.73;100.00
32033;BME280;31720;52.638;9.216;2023-02-02T04:40:30;101412.91;;;3.67;100.00
32033;BME280;31720;52.638;9.216;2023-02-02T04:43:32;101408.63;;;3.65;100.00
32033;BME280;31720;52.638;9.216;2023-02-02T04:46:34;101415.44;;;3.73;100.00
32033;BME280;31720;52.638;9.216;2023-02-02T04:49:36;101412.94;;;3.66;100.00
32033;BME280;31720;52.638;9.216;2023-02-02T04:52:37;101414.59;;;3.71;100.00
32033;BME280;31720;52.638;9.216;2023-02-02T04:55:39;101405.94;;;3.71;100.00
32033;BME280;31720;52.638;9.216;2023-02-02T04:58:40;101422.47;;;3.67;100.00
32033;BME280;31720;52.638;9.216;2023-02-02T05:01:42;101419.84;;;3.68;100.00
32033;BME280;31720;52.638;9.216;2023-02-02T05:04:45;101428.56;;;3.64;100.00
32033;BME280;31720;52.638;9.216;2023-02-02T05:07:46;101419.91;;;3.62;100.00
32033;BME280;31720;52.638;9.216;2023-02-02T05:10:47;101423.38;;;3.64;100.00
32033;BME280;31720;52.638;9.216;2023-02-02T05:13:50;101414.66;;;3.67;100.00
32033;BME280;31720;52.638;9.216;2023-02-02T05:16:52;101426.66;;;3.75;100.00
32033;BME280;31720;52.638;9.216;2023-02-02T05:19:55;101435.38;;;3.71;100.00
32033;BME280;31720;52.638;9.216;2023-02-02T05:22:56;101428.44;;;3.72;100.00
32033;BME280;31720;52.638;9.216;2023-02-02T05:25:57;101438.94;;;3.66;100.00
32033;BME280;31720;52.638;9.216;2023-02-02T05:28:59;101436.28;;;3.70;100.00
32033;BME280;31720;52.638;9.216;2023-02-02T05:32:00;101440.72;;;3.64;100.00
32033;BME280;31720;52.638;9.216;2023-02-02T05:35:03;101439.66;;;3.75;100.00
32033;BME280;31720;52.638;9.216;2023-02-02T05:38:05;101438.81;;;3.75;100.00
32033;BME280;31720;52.638;9.216;2023-02-02T05:41:06;101447.50;;;3.74;100.00
32033;BME280;31720;52.638;9.216;2023-02-02T05:44:09;101460.50;;;3.72;100.00
32033;BME280;31720;52.638;9.216;2023-02-02T05:47:12;101449.38;;;3.63;100.00
32033;BME280;31720;52.638;9.216;2023-02-02T05:50:15;101454.59;;;3.61;100.00
32033;BME280;31720;52.638;9.216;2023-02-02T05:53:16;101458.91;;;3.64;100.00
32033;BME280;31720;52.638;9.216;2023-02-02T05:56:18;101463.13;;;3.71;100.00
32033;BME280;31720;52.638;9.216;2023-02-02T05:59:19;101457.06;;;3.70;100.00
32033;BME280;31720;52.638;9.216;2023-02-02T06:02:21;101455.19;;;3.81;100.00
32033;BME280;31720;52.638;9.216;2023-02-02T06:05:23;101460.50;;;3.74;100.00
32033;BME280;31720;52.638;9.216;2023-02-02T06:08:25;101463.94;;;3.74;100.00
32033;BME280;31720;52.638;9.216;2023-02-02T06:11:26;101470.88;;;3.74;100.00
32033;BME280;31720;52.638;9.216;2023-02-02T06:14:27;101470.78;;;3.80;100.00
32033;BME280;31720;52.638;9.216;2023-02-02T06:17:29;101480.25;;;3.87;100.00
32033;BME280;31720;52.638;9.216;2023-02-02T06:20:31;101468.09;;;3.88;100.00
32033;BME280;31720;52.638;9.216;2023-02-02T06:23:33;101476.78;;;3.85;100.00
32033;BME280;31720;52.638;9.216;2023-02-02T06:26:34;101484.50;;;3.93;100.00
32033;BME280;31720;52.638;9.216;2023-02-02T06:29:35;101483.72;;;3.86;100.00
32033;BME280;31720;52.638;9.216;2023-02-02T06:32:37;101486.25;;;3.91;100.00
32033;BME280;31720;52.638;9.216;2023-02-02T06:35:40;101493.19;;;3.90;100.00
32033;BME280;31720;52.638;9.216;2023-02-02T06:38:41;101492.28;;;3.93;100.00
32033;BME280;31720;52.638;9.216;2023-02-02T06:41:42;101493.16;;;3.93;100.00
32033;BME280;31720;52.638;9.216;2023-02-02T06:44:45;101500.00;;;3.99;100.00
32033;BME280;31720;52.638;9.216;2023-02-02T06:47:46;101494.78;;;3.99;100.00
32033;BME280;31720;52.638;9.216;2023-02-02T06:50:49;101501.75;;;3.98;100.00
32033;BME280;31720;52.638;9.216;2023-02-02T06:53:50;101500.00;;;4.00;100.00
32033;BME280;31720;52.638;9.216;2023-02-02T06:56:52;101498.25;;;4.01;100.00
32033;BME280;31720;52.638;9.216;2023-02-02T06:59:54;101504.22;;;4.07;100.00
32033;BME280;31720;52.638;9.216;2023-02-02T07:02:55;101507.72;;;4.05;100.00
32033;BME280;31720;52.638;9.216;2023-02-02T07:05:59;101511.13;;;4.08;100.00
32033;BME280;31720;52.638;9.216;2023-02-02T07:09:10;101517.28;;;4.03;100.00
32033;BME280;31720;52.638;9.216;2023-02-02T07:12:11;101525.13;;;4.01;100.00
32033;BME280;31720;52.638;9.216;2023-02-02T07:15:12;101529.34;;;4.10;100.00
32033;BME280;31720;52.638;9.216;2023-02-02T07:18:14;101532.03;;;4.02;100.00
32033;BME280;31720;52.638;9.216;2023-02-02T07:21:19;101543.22;;;4.09;100.00
32033;BME280;31720;52.638;9.216;2023-02-02T07:24:21;101542.41;;;4.05;100.00
32033;BME280;31720;52.638;9.216;2023-02-02T07:27:22;101548.34;;;4.12;100.00
32033;BME280;31720;52.638;9.216;2023-02-02T07:30:23;101543.94;;;4.19;100.00
32033;BME280;31720;52.638;9.216;2023-02-02T07:33:28;101558.75;;;4.14;100.00
32033;BME280;31720;52.638;9.216;2023-02-02T07:36:32;101552.63;;;4.16;100.00
32033;BME280;31720;52.638;9.216;2023-02-02T07:39:33;101556.00;;;4.24;100.00
32033;BME280;31720;52.638;9.216;2023-02-02T07:42:35;101558.50;;;4.30;100.00
32033;BME280;31720;52.638;9.216;2023-02-02T07:45:36;101564.59;;;4.29;100.00
32033;BME280;31720;52.638;9.216;2023-02-02T07:48:38;101568.06;;;4.30;100.00
32033;BME280;31720;52.638;9.216;2023-02-02T07:51:41;101568.88;;;4.33;100.00
32033;BME280;31720;52.638;9.216;2023-02-02T07:54:44;101580.03;;;4.42;100.00
32033;BME280;31720;52.638;9.216;2023-02-02T07:57:45;101585.94;;;4.54;100.00
32033;BME280;31720;52.638;9.216;2023-02-02T08:00:47;101590.22;;;4.57;100.00
32033;BME280;31720;52.638;9.216;2023-02-02T08:03:49;101594.56;;;4.56;100.00
32033;BME280;31720;52.638;9.216;2023-02-02T08:06:52;101603.22;;;4.57;100.00
32033;BME280;31720;52.638;9.216;2023-02-02T08:09:53;101606.72;;;4.56;100.00
32033;BME280;31720;52.638;9.216;2023-02-02T08:12:54;101608.41;;;4.58;100.00
32033;BME280;31720;52.638;9.216;2023-02-02T08:15:56;101612.75;;;4.60;100.00
32033;BME280;31720;52.638;9.216;2023-02-02T08:18:57;101615.38;;;4.56;100.00
32033;BME280;31720;52.638;9.216;2023-02-02T08:22:00;101622.19;;;4.67;100.00
32033;BME280;31720;52.638;9.216;2023-02-02T08:25:02;101618.66;;;4.71;100.00
32033;BME280;31720;52.638;9.216;2023-02-02T08:28:03;101623.03;;;4.69;100.00
32033;BME280;31720;52.638;9.216;2023-02-02T08:31:07;101628.13;;;4.75;100.00
32033;BME280;31720;52.638;9.216;2023-02-02T08:34:09;101623.88;;;4.69;100.00
32033;BME280;31720;52.638;9.216;2023-02-02T08:37:11;101616.91;;;4.73;100.00
32033;BME280;31720;52.638;9.216;2023-02-02T08:40:13;101637.66;;;4.76;100.00
32033;BME280;31720;52.638;9.216;2023-02-02T08:43:14;101637.72;;;4.73;100.00
32033;BME280;31720;52.638;9.216;2023-02-02T08:46:18;101634.97;;;4.80;100.00
32033;BME280;31720;52.638;9.216;2023-02-02T08:49:20;101645.41;;;4.82;100.00
32033;BME280;31720;52.638;9.216;2023-02-02T08:52:23;101648.88;;;4.82;100.00
32033;BME280;31720;52.638;9.216;2023-02-02T08:55:24;101655.75;;;4.85;100.00
32033;BME280;31720;52.638;9.216;2023-02-02T08:58:26;101648.88;;;4.82;100.00
32033;BME280;31720;52.638;9.216;2023-02-02T09:01:28;101647.06;;;4.86;100.00
32033;BME280;31720;52.638;9.216;2023-02-02T09:04:30;101653.97;;;4.89;100.00
32033;BME280;31720;52.638;9.216;2023-02-02T09:07:33;101664.41;;;4.87;100.00
32033;BME280;31720;52.638;9.216;2023-02-02T09:10:35;101664.25;;;4.98;100.00
32033;BME280;31720;52.638;9.216;2023-02-02T09:13:38;101671.25;;;4.94;100.00
32033;BME280;31720;52.638;9.216;2023-02-02T09:16:40;101680.78;;;4.95;100.00
32033;BME280;31720;52.638;9.216;2023-02-02T09:19:41;101680.66;;;5.03;100.00
32033;BME280;31720;52.638;9.216;2023-02-02T09:22:44;101680.66;;;5.03;100.00
32033;BME280;31720;52.638;9.216;2023-02-02T09:25:45;101695.47;;;4.99;100.00
32033;BME280;31720;52.638;9.216;2023-02-02T09:28:48;101687.72;;;4.95;100.00
32033;BME280;31720;52.638;9.216;2023-02-02T09:31:50;101701.56;;;4.98;100.00
32033;BME280;31720;52.638;9.216;2023-02-02T09:34:51;101703.25;;;5.02;100.00
32033;BME280;31720;52.638;9.216;2023-02-02T09:37:54;101704.00;;;5.11;100.00
32033;BME280;31720;52.638;9.216;2023-02-02T09:40:55;101700.50;;;5.12;100.00
32033;BME280;31720;52.638;9.216;2023-02-02T09:44:03;101700.34;;;5.21;100.00
32033;BME280;31720;52.638;9.216;2023-02-02T09:47:15;101711.59;;;5.24;100.00
32033;BME280;31720;52.638;9.216;2023-02-02T09:50:21;101714.16;;;5.27;100.00
32033;BME280;31720;52.638;9.216;2023-02-02T09:53:42;101716.78;;;5.26;100.00
32033;BME280;31720;52.638;9.216;2023-02-02T09:56:47;101723.72;;;5.25;100.00
32033;BME280;31720;52.638;9.216;2023-02-02T09:59:53;101717.56;;;5.31;100.00
32033;BME280;31720;52.638;9.216;2023-02-02T10:02:58;101718.38;;;5.36;100.00
32033;BME280;31720;52.638;9.216;2023-02-02T10:06:04;101721.81;;;5.38;100.00
32033;BME280;31720;52.638;9.216;2023-02-02T10:09:19;101733.91;;;5.42;100.00
32033;BME280;31720;52.638;9.216;2023-02-02T10:12:32;101733.88;;;5.45;100.00
32033;BME280;31720;52.638;9.216;2023-02-02T10:15:36;101729.41;;;5.52;100.00
32033;BME280;31720;52.638;9.216;2023-02-02T10:18:44;101741.53;;;5.53;100.00
32033;BME280;31720;52.638;9.216;2023-02-02T10:21:51;101753.63;;;5.57;100.00
32033;BME280;31720;52.638;9.216;2023-02-02T10:24:56;101742.34;;;5.56;100.00
32033;BME280;31720;52.638;9.216;2023-02-02T10:28:03;101743.91;;;5.67;100.00
32033;BME280;31720;52.638;9.216;2023-02-02T10:31:14;101764.78;;;5.67;100.00
32033;BME280;31720;52.638;9.216;2023-02-02T10:34:22;101759.63;;;5.62;100.00
32033;BME280;31720;52.638;9.216;2023-02-02T10:37:29;101766.53;;;5.66;100.00
32033;BME280;31720;52.638;9.216;2023-02-02T10:40:43;101767.38;;;5.67;100.00
32033;BME280;31720;52.638;9.216;2023-02-02T10:43:57;101764.72;;;5.70;100.00
32033;BME280;31720;52.638;9.216;2023-02-02T10:47:04;101759.31;;;5.80;100.00
32033;BME280;31720;52.638;9.216;2023-02-02T10:50:17;101769.00;;;5.74;100.00
32033;BME280;31720;52.638;9.216;2023-02-02T10:53:19;101773.25;;;5.79;100.00
32033;BME280;31720;52.638;9.216;2023-02-02T10:56:25;101777.66;;;5.76;100.00
32033;BME280;31720;52.638;9.216;2023-02-02T10:59:31;101782.78;;;5.82;100.00
32033;BME280;31720;52.638;9.216;2023-02-02T11:02:33;101789.59;;;5.89;100.00
32033;BME280;31720;52.638;9.216;2023-02-02T11:05:35;101790.59;;;5.83;100.00
32033;BME280;31720;52.638;9.216;2023-02-02T11:08:54;101795.75;;;5.85;100.00
32033;BME280;31720;52.638;9.216;2023-02-02T11:12:03;101786.19;;;5.87;100.00
32033;BME280;31720;52.638;9.216;2023-02-02T11:15:07;101804.41;;;5.89;100.00
32033;BME280;31720;52.638;9.216;2023-02-02T11:18:29;101793.06;;;5.90;100.00
32033;BME280;31720;52.638;9.216;2023-02-02T11:21:32;101797.44;;;5.92;100.00
32033;BME280;31720;52.638;9.216;2023-02-02T11:24:39;101802.59;;;5.95;100.00
32033;BME280;31720;52.638;9.216;2023-02-02T11:27:46;101796.53;;;5.93;100.00
32033;BME280;31720;52.638;9.216;2023-02-02T11:30:49;101799.09;;;5.96;100.00
32033;BME280;31720;52.638;9.216;2023-02-02T11:33:51;101798.16;;;5.99;100.00
32033;BME280;31720;52.638;9.216;2023-02-02T11:37:01;101793.66;;;6.08;100.00
32033;BME280;31720;52.638;9.216;2023-02-02T11:40:19;101788.47;;;6.07;100.00
32033;BME280;31720;52.638;9.216;2023-02-02T11:43:28;101797.16;;;6.09;100.00
32033;BME280;31720;52.638;9.216;2023-02-02T11:46:30;101801.38;;;6.13;100.00
32033;BME280;31720;52.638;9.216;2023-02-02T11:49:37;101792.56;;;6.20;100.00
32033;BME280;31720;52.638;9.216;2023-02-02T11:52:44;101800.38;;;6.22;100.00
32033;BME280;31720;52.638;9.216;2023-02-02T11:55:46;101804.59;;;6.29;100.00
32033;BME280;31720;52.638;9.216;2023-02-02T11:58:49;101800.97;;;6.38;100.00
32033;BME280;31720;52.638;9.216;2023-02-02T12:02:14;101810.69;;;6.29;100.00
32033;BME280;31720;52.638;9.216;2023-02-02T12:05:35;101814.06;;;6.36;100.00
32033;BME280;31720;52.638;9.216;2023-02-02T12:08:37;101803.59;;;6.36;100.00
32033;BME280;31720;52.638;9.216;2023-02-02T12:11:47;101811.34;;;6.39;100.00
32033;BME280;31720;52.638;9.216;2023-02-02T12:14:58;101817.44;;;6.40;100.00
32033;BME280;31720;52.638;9.216;2023-02-02T12:18:09;101809.59;;;6.41;100.00
32033;BME280;31720;52.638;9.216;2023-02-02T12:21:20;101810.25;;;6.52;100.00
32033;BME280;31720;52.638;9.216;2023-02-02T12:24:30;101821.59;;;6.51;100.00
32033;BME280;31720;52.638;9.216;2023-02-02T12:27:41;101814.56;;;6.53;100.00
32033;BME280;31720;52.638;9.216;2023-02-02T12:30:52;101813.50;;;6.64;100.00
32033;BME280;31720;52.638;9.216;2023-02-02T12:34:04;101812.75;;;6.57;100.00
32033;BME280;31720;52.638;9.216;2023-02-02T12:37:16;101804.88;;;6.60;100.00
32033;BME280;31720;52.638;9.216;2023-02-02T12:40:31;101810.97;;;6.60;100.00
32033;BME280;31720;52.638;9.216;2023-02-02T12:43:39;101808.31;;;6.62;100.00
32033;BME280;31720;52.638;9.216;2023-02-02T12:46:51;101809.34;;;6.55;100.00
32033;BME280;31720;52.638;9.216;2023-02-02T12:50:14;101806.69;;;6.56;100.00
32033;BME280;31720;52.638;9.216;2023-02-02T12:53:33;101810.09;;;6.60;100.00
32033;BME280;31720;52.638;9.216;2023-02-02T12:56:43;101800.59;;;6.56;100.00
32033;BME280;31720;52.638;9.216;2023-02-02T12:59:57;101811.19;;;6.50;100.00
32033;BME280;31720;52.638;9.216;2023-02-02T13:03:14;101810.25;;;6.52;100.00
32033;BME280;31720;52.638;9.216;2023-02-02T13:06:33;101811.94;;;6.55;100.00
32033;BME280;31720;52.638;9.216;2023-02-02T13:09:42;101807.53;;;6.57;100.00
32033;BME280;31720;52.638;9.216;2023-02-02T13:12:50;101809.19;;;6.61;100.00
32033;BME280;31720;52.638;9.216;2023-02-02T13:15:57;101801.38;;;6.61;100.00
32033;BME280;31720;52.638;9.216;2023-02-02T13:19:04;101805.78;;;6.59;100.00
32033;BME280;31720;52.638;9.216;2023-02-02T13:22:11;101808.81;;;6.79;100.00
32033;BME280;31720;52.638;9.216;2023-02-02T13:25:20;101809.44;;;6.92;100.00
32033;BME280;31720;52.638;9.216;2023-02-02T13:28:34;101814.53;;;6.98;100.00
32033;BME280;31720;52.638;9.216;2023-02-02T13:31:41;101815.28;;;7.03;100.00
32033;BME280;31720;52.638;9.216;2023-02-02T13:34:48;101817.78;;;7.08;100.00
32033;BME280;31720;52.638;9.216;2023-02-02T13:37:55;101823.06;;;7.06;100.00
32033;BME280;31720;52.638;9.216;2023-02-02T13:41:06;101817.03;;;7.04;100.00
32033;BME280;31720;52.638;9.216;2023-02-02T13:44:14;101819.66;;;7.04;100.00
32033;BME280;31720;52.638;9.216;2023-02-02T13:47:21;101820.59;;;6.99;100.00
32033;BME280;31720;52.638;9.216;2023-02-02T13:50:29;101822.25;;;7.03;100.00
32033;BME280;31720;52.638;9.216;2023-02-02T13:53:46;101817.69;;;7.14;100.00
32033;BME280;31720;52.638;9.216;2023-02-02T13:56:53;101817.63;;;7.16;100.00
32033;BME280;31720;52.638;9.216;2023-02-02T14:00:03;101827.19;;;7.17;100.00
32033;BME280;31720;52.638;9.216;2023-02-02T14:03:34;101836.88;;;7.13;100.00
32033;BME280;31720;52.638;9.216;2023-02-02T14:06:53;101838.59;;;7.12;100.00
32033;BME280;31720;52.638;9.216;2023-02-02T14:09:56;101833.41;;;7.11;100.00
32033;BME280;31720;52.638;9.216;2023-02-02T14:13:06;101842.88;;;7.18;100.00
32033;BME280;31720;52.638;9.216;2023-02-02T14:16:44;101847.41;;;7.10;100.00
32033;BME280;31720;52.638;9.216;2023-02-02T14:19:49;101851.16;;;6.97;100.00
32033;BME280;31720;52.638;9.216;2023-02-02T14:22:52;101855.25;;;7.08;100.00
32033;BME280;31720;52.638;9.216;2023-02-02T14:26:04;101858.84;;;7.04;100.00
32033;BME280;31720;52.638;9.216;2023-02-02T14:29:44;101865.94;;;6.98;100.00
32033;BME280;31720;52.638;9.216;2023-02-02T14:33:22;101860.91;;;6.89;100.00
32033;BME280;31720;52.638;9.216;2023-02-02T14:36:25;101863.59;;;6.84;100.00
32033;BME280;31720;52.638;9.216;2023-02-02T14:39:28;101865.34;;;6.83;100.00
32033;BME280;31720;52.638;9.216;2023-02-02T14:42:41;101867.16;;;6.80;100.00
32033;BME280;31720;52.638;9.216;2023-02-02T14:46:20;101871.66;;;6.73;100.00
32033;BME280;31720;52.638;9.216;2023-02-02T14:49:25;101873.41;;;6.73;100.00
32033;BME280;31720;52.638;9.216;2023-02-02T14:52:28;101873.41;;;6.71;100.00
32033;BME280;31720;52.638;9.216;2023-02-02T14:55:51;101871.84;;;6.64;100.00
32033;BME280;31720;52.638;9.216;2023-02-02T14:58:57;101867.56;;;6.58;100.00
32033;BME280;31720;52.638;9.216;2023-02-02T15:02:07;101873.81;;;6.51;100.00
32033;BME280;31720;52.638;9.216;2023-02-02T15:05:35;101883.28;;;6.57;100.00
32033;BME280;31720;52.638;9.216;2023-02-02T15:08:40;101886.78;;;6.56;100.00
32033;BME280;31720;52.638;9.216;2023-02-02T15:15:24;101902.63;;;6.47;100.00
32033;BME280;31720;52.638;9.216;2023-02-02T15:18:31;101914.81;;;6.45;100.00
32033;BME280;31720;52.638;9.216;2023-02-02T15:21:38;101903.50;;;6.46;100.00
32033;BME280;31720;52.638;9.216;2023-02-02T15:24:43;101902.66;;;6.45;100.00
32033;BME280;31720;52.638;9.216;2023-02-02T15:27:52;101912.28;;;6.40;100.00
32033;BME280;31720;52.638;9.216;2023-02-02T15:30:59;101909.75;;;6.35;100.00
32033;BME280;31720;52.638;9.216;2023-02-02T15:34:08;101916.81;;;6.30;100.00
32033;BME280;31720;52.638;9.216;2023-02-02T15:37:14;101916.06;;;6.24;100.00
32033;BME280;31720;52.638;9.216;2023-02-02T15:40:20;101922.19;;;6.21;100.00
32033;BME280;31720;52.638;9.216;2023-02-02T15:43:26;101920.59;;;6.13;100.00
32033;BME280;31720;52.638;9.216;2023-02-02T15:46:31;101926.63;;;6.16;100.00
32033;BME280;31720;52.638;9.216;2023-02-02T15:49:34;101938.84;;;6.13;100.00
32033;BME280;31720;52.638;9.216;2023-02-02T15:52:44;101941.41;;;6.16;100.00
32033;BME280;31720;52.638;9.216;2023-02-02T15:55:47;101949.34;;;6.09;100.00
32033;BME280;31720;52.638;9.216;2023-02-02T15:58:50;101958.94;;;6.09;100.00
32033;BME280;31720;52.638;9.216;2023-02-02T16:02:01;101957.25;;;6.03;100.00
32033;BME280;31720;52.638;9.216;2023-02-02T16:05:24;101960.72;;;6.04;100.00
32033;BME280;31720;52.638;9.216;2023-02-02T16:08:27;101969.50;;;6.00;100.00
32033;BME280;31720;52.638;9.216;2023-02-02T16:11:40;101966.97;;;5.94;100.00
32033;BME280;31720;52.638;9.216;2023-02-02T16:14:44;101974.84;;;5.91;100.00